Time;durP1;ratioP1;P1;durP2;ratioP2;P2;SDS_P1;SDS_P2;PMS_P1;PMS_P2;Temp;Humidity;BMP_temperature;BMP_pressure;BME280_temperature;BME280_humidity;BME280_pressure;Samples;Min_cycle;Max_cycle;Signal;HPM_P1;HPM_P2
2023/04/19 00:01:42;;;;;;;5.75;3.25;;;;;;;;;;5053588;28;20204;-48
2023/04/19 00:04:09;;;;;;;6.18;3.90;;;;;;;;;;5071664;28;20195;-47
2023/04/19 00:06:36;;;;;;;5.22;3.28;;;;;;;;;;5074583;28;20214;-47
2023/04/19 00:09:04;;;;;;;6.13;3.58;;;;;;;;;;5077101;28;20305;-48
2023/04/19 00:11:31;;;;;;;7.35;3.50;;;;;;;;;;5077173;28;20723;-47
2023/04/19 00:13:58;;;;;;;7.15;3.22;;;;;;;;;;5077356;28;20207;-47
2023/04/19 00:16:25;;;;;;;5.35;3.35;;;;;;;;;;5076956;28;20223;-47
2023/04/19 00:18:52;;;;;;;7.10;3.72;;;;;;;;;;5076940;28;20231;-47
2023/04/19 00:21:19;;;;;;;5.28;3.55;;;;;;;;;;5077028;28;20199;-48
2023/04/19 00:23:46;;;;;;;6.45;3.35;;;;;;;;;;5076895;28;20249;-47
2023/04/19 00:26:14;;;;;;;4.88;3.40;;;;;;;;;;5076843;28;20218;-47
2023/04/19 00:28:46;;;;;;;6.22;3.58;;;;;;;;;;5076827;28;20203;-46
2023/04/19 00:31:14;;;;;;;7.07;3.80;;;;;;;;;;5059258;28;20231;-47
2023/04/19 00:33:41;;;;;;;5.15;3.55;;;;;;;;;;5076766;28;20207;-48
2023/04/19 00:36:09;;;;;;;6.72;3.80;;;;;;;;;;5058856;28;20264;-48
2023/04/19 00:38:38;;;;;;;4.53;3.10;;;;;;;;;;5076864;28;20207;-47
2023/04/19 00:41:05;;;;;;;6.63;3.78;;;;;;;;;;5058944;28;20257;-47
2023/04/19 00:43:32;;;;;;;5.65;3.65;;;;;;;;;;5059122;28;20200;-47
2023/04/19 00:45:59;;;;;;;5.45;3.78;;;;;;;;;;5058594;28;20671;-47
2023/04/19 00:48:27;;;;;;;5.57;3.55;;;;;;;;;;5076646;28;20218;-48
2023/04/19 00:50:54;;;;;;;5.78;3.65;;;;;;;;;;5058527;28;20555;-48
2023/04/19 00:53:22;;;;;;;5.70;3.47;;;;;;;;;;5058568;28;20234;-47
2023/04/19 00:55:50;;;;;;;8.35;3.83;;;;;;;;;;5058491;28;20757;-47
2023/04/19 00:58:18;;;;;;;5.40;3.67;;;;;;;;;;5058876;28;20203;-47
2023/04/19 01:00:46;;;;;;;5.85;4.10;;;;;;;;;;5042132;28;20203;-47
2023/04/19 01:03:15;;;;;;;5.90;4.03;;;;;;;;;;5076182;28;20212;-47
2023/04/19 01:05:42;;;;;;;5.55;3.85;;;;;;;;;;5076420;28;20206;-47
2023/04/19 01:08:12;;;;;;;5.60;4.20;;;;;;;;;;5058475;28;20260;-48
2023/04/19 01:10:39;;;;;;;6.53;3.92;;;;;;;;;;5076149;28;20213;-48
2023/04/19 01:13:07;;;;;;;5.43;3.42;;;;;;;;;;5076176;28;20578;-47
2023/04/19 01:15:36;;;;;;;7.38;3.92;;;;;;;;;;5075764;28;20695;-48
2023/04/19 01:18:04;;;;;;;6.40;4.10;;;;;;;;;;5075692;28;20206;-48
2023/04/19 01:20:31;;;;;;;5.10;3.53;;;;;;;;;;5058150;28;20262;-48
2023/04/19 01:22:58;;;;;;;5.22;3.80;;;;;;;;;;5058008;28;20207;-46
2023/04/19 01:25:26;;;;;;;7.78;3.60;;;;;;;;;;5058069;28;20204;-47
2023/04/19 01:27:53;;;;;;;5.57;3.80;;;;;;;;;;5075770;28;20562;-47
2023/04/19 01:30:22;;;;;;;5.28;3.33;;;;;;;;;;5057895;28;20203;-47
2023/04/19 01:32:50;;;;;;;4.32;3.20;;;;;;;;;;5075722;28;20196;-47
2023/04/19 01:35:17;;;;;;;8.50;3.45;;;;;;;;;;5075871;28;20203;-48
2023/04/19 01:37:45;;;;;;;4.93;3.92;;;;;;;;;;5075794;28;20223;-48
2023/04/19 01:40:13;;;;;;;4.60;3.05;;;;;;;;;;5075481;28;20207;-47
2023/04/19 01:42:40;;;;;;;6.32;3.55;;;;;;;;;;5074319;28;20543;-47
2023/04/19 01:45:07;;;;;;;6.25;3.75;;;;;;;;;;5075437;28;20656;-49
2023/04/19 01:47:34;;;;;;;7.50;3.42;;;;;;;;;;5074295;28;20203;-47
2023/04/19 01:50:02;;;;;;;6.35;3.92;;;;;;;;;;5074389;28;20230;-48
2023/04/19 01:52:29;;;;;;;4.40;2.95;;;;;;;;;;5075249;28;20672;-49
2023/04/19 01:54:56;;;;;;;6.03;3.58;;;;;;;;;;5075562;28;20248;-49
2023/04/19 01:57:23;;;;;;;4.97;3.38;;;;;;;;;;5073986;28;20300;-48
2023/04/19 01:59:52;;;;;;;4.95;2.80;;;;;;;;;;5075355;28;20600;-47
2023/04/19 02:02:19;;;;;;;7.43;3.38;;;;;;;;;;5074077;28;20202;-48
2023/04/19 02:04:47;;;;;;;4.93;2.92;;;;;;;;;;5074991;28;20730;-48
2023/04/19 02:07:14;;;;;;;5.22;3.15;;;;;;;;;;5074067;28;20207;-48
2023/04/19 02:09:41;;;;;;;6.22;3.10;;;;;;;;;;5074974;28;20568;-48
2023/04/19 02:12:08;;;;;;;4.90;2.97;;;;;;;;;;5073824;28;20664;-47
2023/04/19 02:14:35;;;;;;;5.45;3.22;;;;;;;;;;5073704;28;20204;-47
2023/04/19 02:17:03;;;;;;;5.45;3.60;;;;;;;;;;5074616;28;20230;-48
2023/04/19 02:19:30;;;;;;;5.35;3.15;;;;;;;;;;5085649;28;20284;-48
2023/04/19 02:21:58;;;;;;;4.93;3.13;;;;;;;;;;5077176;28;20199;-47
2023/04/19 02:24:25;;;;;;;4.70;2.88;;;;;;;;;;5094855;28;20285;-48
2023/04/19 02:26:52;;;;;;;5.10;3.10;;;;;;;;;;5077016;28;20218;-48
2023/04/19 02:29:19;;;;;;;3.95;2.97;;;;;;;;;;5076403;28;20203;-48
2023/04/19 02:31:47;;;;;;;6.00;3.42;;;;;;;;;;5094987;28;20210;-47
2023/04/19 02:34:14;;;;;;;4.85;3.08;;;;;;;;;;5094747;28;20219;-47
2023/04/19 02:36:42;;;;;;;4.72;3.08;;;;;;;;;;5094709;28;20226;-50
2023/04/19 02:39:08;;;;;;;6.22;3.22;;;;;;;;;;5094547;28;20667;-48
2023/04/19 02:41:38;;;;;;;5.38;3.15;;;;;;;;;;5076874;28;20202;-47
2023/04/19 02:44:04;;;;;;;4.32;3.03;;;;;;;;;;5076663;28;20209;-47
2023/04/19 02:46:33;;;;;;;5.78;3.20;;;;;;;;;;5076599;28;20260;-48
2023/04/19 02:49:00;;;;;;;5.20;3.28;;;;;;;;;;5094376;28;20660;-47
2023/04/19 02:51:28;;;;;;;4.75;3.25;;;;;;;;;;5094516;28;20229;-47
2023/04/19 02:53:55;;;;;;;6.35;3.60;;;;;;;;;;5076196;28;20203;-47
2023/04/19 02:56:23;;;;;;;6.70;2.88;;;;;;;;;;5076125;28;20646;-47
2023/04/19 02:58:52;;;;;;;5.85;3.28;;;;;;;;;;5076089;28;20201;-49
2023/04/19 03:01:19;;;;;;;5.40;3.22;;;;;;;;;;5060287;28;20239;-46
2023/04/19 03:03:46;;;;;;;5.15;3.63;;;;;;;;;;5076257;28;20207;-48
2023/04/19 03:06:15;;;;;;;5.05;3.13;;;;;;;;;;5094048;28;20567;-47
2023/04/19 03:08:42;;;;;;;4.57;2.90;;;;;;;;;;5075977;28;20728;-47
2023/04/19 03:11:10;;;;;;;6.65;2.97;;;;;;;;;;5076273;28;20213;-47
2023/04/19 03:13:39;;;;;;;5.60;3.08;;;;;;;;;;5076039;28;20675;-48
2023/04/19 03:16:07;;;;;;;4.88;2.95;;;;;;;;;;5076006;28;20202;-47
2023/04/19 03:18:35;;;;;;;5.25;3.38;;;;;;;;;;5075693;28;20237;-50
2023/04/19 03:21:04;;;;;;;4.88;3.00;;;;;;;;;;5076142;28;20201;-49
2023/04/19 03:23:39;;;;;;;4.75;2.97;;;;;;;;;;5076223;28;20191;-48
2023/04/19 03:26:07;;;;;;;4.40;2.90;;;;;;;;;;5075894;28;20659;-47
2023/04/19 03:28:41;;;;;;;4.47;3.10;;;;;;;;;;5059368;28;20204;-47
2023/04/19 03:31:34;;;;;;;4.57;3.17;;;;;;;;;;5048631;28;20641;-50
2023/04/19 03:34:03;;;;;;;6.05;3.42;;;;;;;;;;5052630;28;20201;-50
2023/04/19 03:36:37;;;;;;;5.90;3.22;;;;;;;;;;5055811;28;20235;-48
2023/04/19 03:39:05;;;;;;;5.03;3.20;;;;;;;;;;5073556;28;20202;-49
2023/04/19 03:41:32;;;;;;;5.40;3.53;;;;;;;;;;5071747;28;20207;-47
2023/04/19 03:44:09;;;;;;;6.68;3.38;;;;;;;;;;5056132;28;20204;-47
2023/04/19 03:46:40;;;;;;;4.22;2.95;;;;;;;;;;5055832;28;20199;-46
2023/04/19 03:49:08;;;;;;;5.88;3.15;;;;;;;;;;5055518;28;20250;-47
2023/04/19 03:51:36;;;;;;;7.05;3.58;;;;;;;;;;5052009;28;20199;-50
2023/04/19 03:54:03;;;;;;;4.78;3.83;;;;;;;;;;5044856;28;20214;-48
2023/04/19 03:56:31;;;;;;;4.95;3.20;;;;;;;;;;5036525;28;20231;-48
2023/04/19 03:58:58;;;;;;;6.60;3.65;;;;;;;;;;5060423;28;20200;-47
2023/04/19 04:01:28;;;;;;;6.15;3.58;;;;;;;;;;5041098;28;20207;-48
2023/04/19 04:03:55;;;;;;;6.43;4.20;;;;;;;;;;5047755;28;20203;-47
2023/04/19 04:06:23;;;;;;;4.32;3.28;;;;;;;;;;5043544;28;20263;-48
2023/04/19 04:08:50;;;;;;;5.68;3.40;;;;;;;;;;5033205;28;20208;-48
2023/04/19 04:11:18;;;;;;;5.07;3.03;;;;;;;;;;5030815;28;20208;-47
2023/04/19 04:13:49;;;;;;;5.05;3.30;;;;;;;;;;5044543;28;20238;-48
2023/04/19 04:16:20;;;;;;;4.68;2.95;;;;;;;;;;5033656;28;20223;-47
2023/04/19 04:18:49;;;;;;;6.25;3.40;;;;;;;;;;5029385;28;20296;-47
2023/04/19 04:21:17;;;;;;;5.70;3.40;;;;;;;;;;5026615;28;20223;-47
2023/04/19 04:23:46;;;;;;;4.90;3.28;;;;;;;;;;5057130;28;20216;-48
2023/04/19 04:26:24;;;;;;;4.50;3.20;;;;;;;;;;5052194;28;20241;-47
2023/04/19 04:29:12;;;;;;;5.78;3.28;;;;;;;;;;5034641;28;20311;-48
2023/04/19 04:31:40;;;;;;;5.82;3.80;;;;;;;;;;5034483;28;20365;-48
2023/04/19 04:34:09;;;;;;;4.32;3.08;;;;;;;;;;5034903;28;20584;-47
2023/04/19 04:36:44;;;;;;;4.55;3.28;;;;;;;;;;5034574;28;20289;-47
2023/04/19 04:39:11;;;;;;;6.93;3.42;;;;;;;;;;5034417;28;20791;-47
2023/04/19 04:41:41;;;;;;;7.07;3.90;;;;;;;;;;5051654;28;20231;-48
2023/04/19 04:44:08;;;;;;;5.80;3.72;;;;;;;;;;5052262;28;20231;-48
2023/04/19 04:46:42;;;;;;;7.07;3.67;;;;;;;;;;5034678;28;20235;-50
2023/04/19 04:49:11;;;;;;;5.20;3.63;;;;;;;;;;5034118;28;20769;-48
2023/04/19 04:51:41;;;;;;;4.90;3.17;;;;;;;;;;5041248;28;20227;-51
2023/04/19 04:54:09;;;;;;;5.00;3.17;;;;;;;;;;5008914;28;20216;-49
2023/04/19 04:56:36;;;;;;;7.70;4.22;;;;;;;;;;5068755;28;20219;-48
2023/04/19 04:59:03;;;;;;;5.72;3.70;;;;;;;;;;5057879;28;20630;-48
2023/04/19 05:01:37;;;;;;;5.30;3.15;;;;;;;;;;5057774;28;20265;-48
2023/04/19 05:04:05;;;;;;;6.93;3.83;;;;;;;;;;5057111;28;20668;-48
2023/04/19 05:06:32;;;;;;;4.32;3.22;;;;;;;;;;5039905;28;20716;-53
2023/04/19 05:08:59;;;;;;;6.78;3.85;;;;;;;;;;5061088;28;20220;-48
2023/04/19 05:11:32;;;;;;;5.07;3.65;;;;;;;;;;5044422;28;20691;-50
2023/04/19 05:14:00;;;;;;;6.90;3.40;;;;;;;;;;5050301;28;20230;-47
2023/04/19 05:16:28;;;;;;;5.30;3.47;;;;;;;;;;5046884;28;20231;-46
2023/04/19 05:18:55;;;;;;;5.90;3.63;;;;;;;;;;5047641;28;20251;-52
2023/04/19 05:21:24;;;;;;;5.68;4.00;;;;;;;;;;5058045;28;20664;-48
2023/04/19 05:23:55;;;;;;;6.57;3.80;;;;;;;;;;5057294;28;20231;-53
2023/04/19 05:26:22;;;;;;;5.57;3.15;;;;;;;;;;5056834;28;20226;-48
2023/04/19 05:28:50;;;;;;;6.55;4.05;;;;;;;;;;5056369;28;20648;-47
2023/04/19 05:31:30;;;;;;;6.13;3.50;;;;;;;;;;5056547;28;20791;-50
2023/04/19 05:34:30;;;;;;;6.57;3.85;;;;;;;;;;4973754;28;20202;-48
2023/04/19 05:36:59;;;;;;;6.35;3.67;;;;;;;;;;4957746;28;20227;-47
2023/04/19 05:39:26;;;;;;;6.28;3.50;;;;;;;;;;4974275;28;20211;-47
2023/04/19 05:41:54;;;;;;;7.90;4.10;;;;;;;;;;4958625;28;20700;-47
2023/04/19 05:44:20;;;;;;;7.32;4.40;;;;;;;;;;4974502;28;20265;-50
2023/04/19 05:46:48;;;;;;;7.85;4.40;;;;;;;;;;4958499;28;20273;-50
2023/04/19 05:49:26;;;;;;;6.57;3.88;;;;;;;;;;4958554;28;20195;-48
2023/04/19 05:52:16;;;;;;;6.32;4.22;;;;;;;;;;4974525;28;20683;-47
2023/04/19 05:54:50;;;;;;;6.72;3.88;;;;;;;;;;4958302;28;20671;-49
2023/04/19 05:57:18;;;;;;;7.03;3.72;;;;;;;;;;4958341;28;20222;-48
2023/04/19 05:59:45;;;;;;;6.43;3.50;;;;;;;;;;4958131;28;20294;-47
2023/04/19 06:02:16;;;;;;;7.47;4.22;;;;;;;;;;4958419;28;20206;-48
2023/04/19 06:04:43;;;;;;;6.28;4.43;;;;;;;;;;4957205;28;20199;-48
2023/04/19 06:07:11;;;;;;;5.47;3.75;;;;;;;;;;4958187;28;20236;-47
2023/04/19 06:09:57;;;;;;;6.32;4.07;;;;;;;;;;4999510;28;20203;-48
2023/04/19 06:12:24;;;;;;;5.80;3.83;;;;;;;;;;5075099;28;20257;-47
2023/04/19 06:14:52;;;;;;;7.20;4.70;;;;;;;;;;5075102;28;20290;-48
2023/04/19 06:17:24;;;;;;;6.55;4.35;;;;;;;;;;5057131;28;20231;-47
2023/04/19 06:19:52;;;;;;;6.15;4.22;;;;;;;;;;5088056;28;20234;-47
2023/04/19 06:22:20;;;;;;;7.63;4.20;;;;;;;;;;5095229;28;20263;-49
2023/04/19 06:24:47;;;;;;;7.93;4.40;;;;;;;;;;5095121;28;20203;-51
2023/04/19 06:27:15;;;;;;;6.50;4.13;;;;;;;;;;5094906;28;20214;-48
2023/04/19 06:29:42;;;;;;;7.53;4.53;;;;;;;;;;5094710;28;20206;-48
2023/04/19 06:32:10;;;;;;;7.55;4.78;;;;;;;;;;5094808;28;20268;-47
2023/04/19 06:34:37;;;;;;;9.25;5.15;;;;;;;;;;5094557;28;20285;-48
2023/04/19 06:37:04;;;;;;;9.75;6.05;;;;;;;;;;5094819;28;20202;-49
2023/04/19 06:39:31;;;;;;;9.07;5.13;;;;;;;;;;5094936;28;20598;-47
2023/04/19 06:41:58;;;;;;;8.38;5.15;;;;;;;;;;5094447;28;20248;-47
2023/04/19 06:44:25;;;;;;;7.72;5.00;;;;;;;;;;5076365;28;20207;-48
2023/04/19 06:46:52;;;;;;;6.47;5.40;;;;;;;;;;5094383;28;20206;-48
2023/04/19 06:49:21;;;;;;;7.63;4.78;;;;;;;;;;5094405;28;20324;-48
2023/04/19 06:51:48;;;;;;;10.25;5.68;;;;;;;;;;5094598;28;20206;-49
2023/04/19 06:54:15;;;;;;;10.25;5.53;;;;;;;;;;5094627;28;20198;-48
2023/04/19 06:56:45;;;;;;;8.20;5.45;;;;;;;;;;5094317;28;20198;-48
2023/04/19 06:59:15;;;;;;;8.82;5.72;;;;;;;;;;5094114;28;20222;-47
2023/04/19 07:01:46;;;;;;;10.82;5.38;;;;;;;;;;5094233;28;20202;-48
2023/04/19 07:04:13;;;;;;;10.23;5.45;;;;;;;;;;5094495;28;20183;-48
2023/04/19 07:06:41;;;;;;;10.40;6.38;;;;;;;;;;5094156;28;20666;-48
2023/04/19 07:09:08;;;;;;;11.32;6.55;;;;;;;;;;5094128;28;20202;-47
2023/04/19 07:11:36;;;;;;;10.45;5.28;;;;;;;;;;5094097;28;20252;-49
2023/04/19 07:14:03;;;;;;;8.75;6.25;;;;;;;;;;5093952;28;20205;-49
2023/04/19 07:16:31;;;;;;;9.20;5.50;;;;;;;;;;5093758;28;20206;-47
2023/04/19 07:18:58;;;;;;;9.07;6.28;;;;;;;;;;5093641;28;20238;-49
2023/04/19 07:21:27;;;;;;;7.85;5.43;;;;;;;;;;5094059;28;20608;-48
2023/04/19 07:23:54;;;;;;;11.48;5.40;;;;;;;;;;5094100;28;20255;-48
2023/04/19 07:26:21;;;;;;;9.57;5.93;;;;;;;;;;5094174;28;20236;-48
2023/04/19 07:28:49;;;;;;;10.15;5.57;;;;;;;;;;5094189;28;20301;-48
2023/04/19 07:31:17;;;;;;;9.68;5.80;;;;;;;;;;5094040;28;20282;-49
2023/04/19 07:33:44;;;;;;;9.13;5.72;;;;;;;;;;5093622;28;20206;-50
2023/04/19 07:36:11;;;;;;;10.57;5.63;;;;;;;;;;5076011;28;20207;-49
2023/04/19 07:38:38;;;;;;;10.48;6.30;;;;;;;;;;5073276;28;20223;-47
2023/04/19 07:41:06;;;;;;;9.63;5.28;;;;;;;;;;5073386;28;20203;-48
2023/04/19 07:43:33;;;;;;;9.35;5.57;;;;;;;;;;5073332;28;20226;-48
2023/04/19 07:46:00;;;;;;;9.50;5.97;;;;;;;;;;5073423;28;20203;-54
2023/04/19 07:48:27;;;;;;;8.35;5.63;;;;;;;;;;5073202;28;20203;-48
2023/04/19 07:50:54;;;;;;;7.35;5.10;;;;;;;;;;5073314;28;20199;-47
2023/04/19 07:53:21;;;;;;;8.02;5.55;;;;;;;;;;5073403;28;20226;-47
2023/04/19 07:55:49;;;;;;;8.13;4.97;;;;;;;;;;5073259;28;20207;-48
2023/04/19 07:58:16;;;;;;;8.48;5.30;;;;;;;;;;5073355;28;20227;-47
2023/04/19 08:00:43;;;;;;;8.05;5.30;;;;;;;;;;5073580;28;20215;-50
2023/04/19 08:03:10;;;;;;;8.43;5.28;;;;;;;;;;5073155;28;20195;-48
2023/04/19 08:05:37;;;;;;;9.20;5.10;;;;;;;;;;5073354;28;20203;-49
2023/04/19 08:08:05;;;;;;;8.65;5.25;;;;;;;;;;5073053;28;20664;-48
2023/04/19 08:10:33;;;;;;;9.57;5.63;;;;;;;;;;5073246;28;20207;-49
2023/04/19 08:13:00;;;;;;;9.07;5.43;;;;;;;;;;5073117;28;20208;-48
2023/04/19 08:15:33;;;;;;;9.23;5.53;;;;;;;;;;5073396;28;20202;-48
2023/04/19 08:18:04;;;;;;;7.90;5.35;;;;;;;;;;5073171;28;20219;-48
2023/04/19 08:20:32;;;;;;;8.05;5.30;;;;;;;;;;5092085;28;20360;-49
2023/04/19 08:22:59;;;;;;;10.43;5.60;;;;;;;;;;5093177;28;20238;-49
2023/04/19 08:25:40;;;;;;;9.02;5.55;;;;;;;;;;5093206;28;20214;-48
2023/04/19 08:28:07;;;;;;;11.90;5.95;;;;;;;;;;5095370;28;20202;-48
2023/04/19 08:30:35;;;;;;;9.60;5.32;;;;;;;;;;5079290;28;20203;-48
2023/04/19 08:33:02;;;;;;;9.05;5.60;;;;;;;;;;5097124;28;20218;-48
2023/04/19 08:35:29;;;;;;;9.18;6.18;;;;;;;;;;5097048;28;20206;-48
2023/04/19 08:37:56;;;;;;;10.18;6.00;;;;;;;;;;5096743;28;20240;-49
2023/04/19 08:40:23;;;;;;;10.68;5.97;;;;;;;;;;5096990;28;20206;-48
2023/04/19 08:42:50;;;;;;;8.52;5.40;;;;;;;;;;5096860;28;20198;-49
2023/04/19 08:45:18;;;;;;;9.52;6.18;;;;;;;;;;5096770;28;20535;-48
2023/04/19 08:47:56;;;;;;;9.43;5.85;;;;;;;;;;5080422;28;20198;-49
2023/04/19 08:50:29;;;;;;;10.52;6.05;;;;;;;;;;5079812;28;20202;-48
2023/04/19 08:53:11;;;;;;;10.40;5.72;;;;;;;;;;5097048;28;20270;-48
2023/04/19 08:55:44;;;;;;;8.48;5.38;;;;;;;;;;5096711;28;20190;-47
2023/04/19 08:58:32;;;;;;;7.78;4.93;;;;;;;;;;5096490;28;20222;-48
2023/04/19 09:01:04;;;;;;;10.23;5.72;;;;;;;;;;5096516;28;20240;-48
2023/04/19 09:03:31;;;;;;;8.43;5.30;;;;;;;;;;5096694;28;20199;-48
2023/04/19 09:06:13;;;;;;;8.63;5.78;;;;;;;;;;5096530;28;20202;-49
2023/04/19 09:08:40;;;;;;;8.70;5.30;;;;;;;;;;5096370;28;20214;-48
2023/04/19 09:11:08;;;;;;;8.70;5.60;;;;;;;;;;5096348;28;20202;-48
2023/04/19 09:13:39;;;;;;;5.68;4.55;;;;;;;;;;5096784;28;20191;-47
2023/04/19 09:16:22;;;;;;;6.18;4.65;;;;;;;;;;5096551;28;20202;-49
2023/04/19 09:18:55;;;;;;;6.80;4.18;;;;;;;;;;5096248;28;20296;-47
2023/04/19 09:21:42;;;;;;;6.15;4.13;;;;;;;;;;5096483;28;20206;-51
2023/04/19 09:24:10;;;;;;;6.70;4.38;;;;;;;;;;5096198;28;20252;-48
2023/04/19 09:26:37;;;;;;;4.88;3.80;;;;;;;;;;5095946;28;20202;-49
2023/04/19 09:29:05;;;;;;;4.85;3.53;;;;;;;;;;5096137;28;20286;-48
2023/04/19 09:31:37;;;;;;;6.10;4.10;;;;;;;;;;5095942;28;20206;-49
2023/04/19 09:34:15;;;;;;;8.43;4.28;;;;;;;;;;5096204;28;20190;-49
2023/04/19 09:36:43;;;;;;;5.63;3.78;;;;;;;;;;5096244;28;20213;-48
2023/04/19 09:39:10;;;;;;;5.78;3.95;;;;;;;;;;5095528;28;20260;-50
2023/04/19 09:41:52;;;;;;;6.57;4.00;;;;;;;;;;5096062;28;20207;-48
2023/04/19 09:44:19;;;;;;;4.97;3.90;;;;;;;;;;5095784;28;20301;-48
2023/04/19 09:47:26;;;;;;;6.63;4.00;;;;;;;;;;5096006;28;20772;-50
2023/04/19 09:50:09;;;;;;;6.35;4.00;;;;;;;;;;5095772;28;20187;-49
2023/04/19 09:52:39;;;;;;;4.72;3.40;;;;;;;;;;5095653;28;20206;-49
2023/04/19 09:55:07;;;;;;;5.35;3.70;;;;;;;;;;5095390;28;20585;-50
2023/04/19 09:57:52;;;;;;;5.13;2.97;;;;;;;;;;5095608;28;20198;-48
2023/04/19 10:00:20;;;;;;;5.10;3.50;;;;;;;;;;5095462;28;20259;-48
2023/04/19 10:02:54;;;;;;;5.20;3.30;;;;;;;;;;5095328;28;20218;-49
2023/04/19 10:05:23;;;;;;;2.42;2.22;;;;;;;;;;5095482;28;20290;-50
2023/04/19 10:07:51;;;;;;;5.47;2.78;;;;;;;;;;5095286;28;20206;-50
2023/04/19 10:10:24;;;;;;;3.20;2.40;;;;;;;;;;5095085;28;20618;-48
2023/04/19 10:13:11;;;;;;;3.25;2.15;;;;;;;;;;5079870;28;20316;-48
2023/04/19 10:15:42;;;;;;;2.45;1.90;;;;;;;;;;5078263;28;20205;-50
2023/04/19 10:18:20;;;;;;;3.63;2.15;;;;;;;;;;5094976;28;20214;-49
2023/04/19 10:21:05;;;;;;;3.40;2.00;;;;;;;;;;5077063;28;20199;-51
2023/04/19 10:23:33;;;;;;;2.40;1.70;;;;;;;;;;5077257;28;20628;-49
2023/04/19 10:26:00;;;;;;;5.38;2.30;;;;;;;;;;5094619;28;20202;-48
2023/04/19 10:28:31;;;;;;;1.92;1.45;;;;;;;;;;5094849;28;20210;-49
2023/04/19 10:31:00;;;;;;;6.10;2.17;;;;;;;;;;5095014;28;20195;-50
2023/04/19 10:33:34;;;;;;;2.17;1.75;;;;;;;;;;5094854;28;20203;-50
2023/04/19 10:36:01;;;;;;;4.70;1.40;;;;;;;;;;5094896;28;20276;-48
2023/04/19 10:38:36;;;;;;;2.30;1.30;;;;;;;;;;5094853;28;20230;-50
2023/04/19 10:41:04;;;;;;;1.85;1.45;;;;;;;;;;5094909;28;20294;-49
2023/04/19 10:43:35;;;;;;;2.35;1.23;;;;;;;;;;5094822;28;20207;-49
2023/04/19 10:46:05;;;;;;;2.42;1.58;;;;;;;;;;5094846;28;20244;-49
2023/04/19 10:48:36;;;;;;;2.15;1.30;;;;;;;;;;5094485;28;20556;-48
2023/04/19 10:51:15;;;;;;;3.17;1.60;;;;;;;;;;5094292;28;20607;-48
2023/04/19 10:53:42;;;;;;;2.17;1.33;;;;;;;;;;5094174;28;20209;-48
2023/04/19 10:56:09;;;;;;;3.15;1.40;;;;;;;;;;5080260;28;20196;-47
2023/04/19 10:59:04;;;;;;;2.38;1.52;;;;;;;;;;5063599;28;20284;-49
2023/04/19 11:01:44;;;;;;;2.80;1.38;;;;;;;;;;5063401;28;20192;-52
2023/04/19 11:04:15;;;;;;;2.85;1.50;;;;;;;;;;5063077;28;20192;-50
2023/04/19 11:06:51;;;;;;;1.48;1.30;;;;;;;;;;5058955;28;20200;-51
2023/04/19 11:09:26;;;;;;;1.08;0.98;;;;;;;;;;5062321;28;20192;-48
2023/04/19 11:11:57;;;;;;;1.17;0.80;;;;;;;;;;5063935;28;20927;-49
2023/04/19 11:14:25;;;;;;;1.55;0.90;;;;;;;;;;5062152;28;20203;-47
2023/04/19 11:16:52;;;;;;;0.77;0.63;;;;;;;;;;5063784;28;20194;-47
2023/04/19 11:19:19;;;;;;;3.97;1.33;;;;;;;;;;5067603;28;20230;-48
2023/04/19 11:21:47;;;;;;;1.92;1.00;;;;;;;;;;5083324;28;20199;-48
2023/04/19 11:24:17;;;;;;;0.93;0.70;;;;;;;;;;5078693;28;20195;-49
2023/04/19 11:26:45;;;;;;;1.58;0.90;;;;;;;;;;5081384;28;20619;-50
2023/04/19 11:29:12;;;;;;;1.38;0.60;;;;;;;;;;5082854;28;20260;-49
2023/04/19 11:31:43;;;;;;;2.78;0.90;;;;;;;;;;5081210;28;20261;-49
2023/04/19 11:34:11;;;;;;;0.88;0.68;;;;;;;;;;5079168;28;20249;-48
2023/04/19 11:36:49;;;;;;;1.15;0.70;;;;;;;;;;5081910;28;20199;-51
2023/04/19 11:39:16;;;;;;;1.00;0.63;;;;;;;;;;5080382;28;20624;-50
2023/04/19 11:41:45;;;;;;;1.85;0.85;;;;;;;;;;5080840;28;20574;-48
2023/04/19 11:44:18;;;;;;;0.68;0.60;;;;;;;;;;5082336;28;20206;-53
2023/04/19 11:46:59;;;;;;;0.80;0.77;;;;;;;;;;5083108;28;20196;-51
2023/04/19 11:49:28;;;;;;;1.00;0.80;;;;;;;;;;5083000;28;20199;-49
2023/04/19 11:51:59;;;;;;;0.85;0.60;;;;;;;;;;5081841;28;20191;-51
2023/04/19 11:54:29;;;;;;;1.13;0.68;;;;;;;;;;5078931;28;20198;-53
2023/04/19 11:57:02;;;;;;;1.38;0.70;;;;;;;;;;5084916;28;20195;-49
2023/04/19 11:59:31;;;;;;;0.80;0.63;;;;;;;;;;5080436;28;20214;-50
2023/04/19 12:02:11;;;;;;;2.63;1.10;;;;;;;;;;5080814;28;20205;-49
2023/04/19 12:04:39;;;;;;;1.10;0.80;;;;;;;;;;5051619;28;20207;-50
2023/04/19 12:07:09;;;;;;;1.00;0.60;;;;;;;;;;5084474;28;20197;-50
2023/04/19 12:09:37;;;;;;;0.77;0.73;;;;;;;;;;5085992;28;20199;-48
2023/04/19 12:12:05;;;;;;;2.13;0.95;;;;;;;;;;5084798;28;20219;-50
2023/04/19 12:14:33;;;;;;;0.90;0.65;;;;;;;;;;5083780;28;20613;-51
2023/04/19 12:17:13;;;;;;;0.80;0.65;;;;;;;;;;5090333;28;20225;-50
2023/04/19 12:19:45;;;;;;;1.30;0.85;;;;;;;;;;5085511;28;20774;-52
2023/04/19 12:22:22;;;;;;;4.40;2.53;;;;;;;;;;5083117;28;20200;-49
2023/04/19 12:24:51;;;;;;;0.75;0.55;;;;;;;;;;5082593;28;20195;-49
2023/04/19 12:27:17;;;;;;;1.08;0.80;;;;;;;;;;5085441;28;20194;-49
2023/04/19 12:29:45;;;;;;;2.30;0.85;;;;;;;;;;5064378;28;20203;-51
2023/04/19 12:32:14;;;;;;;0.88;0.70;;;;;;;;;;5081903;28;20248;-48
2023/04/19 12:34:42;;;;;;;4.03;1.67;;;;;;;;;;5087386;28;20207;-47
2023/04/19 12:37:09;;;;;;;1.58;0.85;;;;;;;;;;5078895;28;20218;-55
2023/04/19 12:39:36;;;;;;;0.93;0.60;;;;;;;;;;5081001;28;20268;-50
2023/04/19 12:42:04;;;;;;;3.45;0.60;;;;;;;;;;5090310;28;20223;-49
2023/04/19 12:44:32;;;;;;;0.88;0.68;;;;;;;;;;5083722;28;20228;-48
2023/04/19 12:46:59;;;;;;;1.73;0.98;;;;;;;;;;5082032;28;20260;-48
2023/04/19 12:49:26;;;;;;;0.80;0.60;;;;;;;;;;5074603;28;20223;-48
2023/04/19 12:51:53;;;;;;;1.40;0.73;;;;;;;;;;5082605;28;20218;-48
2023/04/19 12:54:23;;;;;;;1.85;0.80;;;;;;;;;;5085079;28;20731;-49
2023/04/19 12:56:50;;;;;;;1.63;0.82;;;;;;;;;;5083461;28;20223;-58
2023/04/19 12:59:18;;;;;;;2.22;0.88;;;;;;;;;;5086003;28;20766;-52
2023/04/19 13:01:45;;;;;;;0.75;0.73;;;;;;;;;;5083191;28;20226;-56
2023/04/19 13:04:13;;;;;;;2.00;1.00;;;;;;;;;;5079252;28;20250;-51
2023/04/19 13:06:41;;;;;;;0.70;0.68;;;;;;;;;;5084617;28;20214;-49
2023/04/19 13:09:08;;;;;;;1.45;0.90;;;;;;;;;;5084326;28;20289;-51
2023/04/19 13:11:38;;;;;;;0.93;0.60;;;;;;;;;;5086092;28;20392;-51
2023/04/19 13:14:05;;;;;;;0.98;0.82;;;;;;;;;;5080120;28;20579;-51
2023/04/19 13:16:32;;;;;;;0.80;0.70;;;;;;;;;;5079789;28;20225;-53
2023/04/19 13:19:00;;;;;;;0.93;0.70;;;;;;;;;;5084360;28;20828;-51
2023/04/19 13:21:27;;;;;;;1.15;0.73;;;;;;;;;;5079163;28;20703;-48
2023/04/19 13:23:54;;;;;;;1.23;0.65;;;;;;;;;;5079640;28;20855;-50
2023/04/19 13:26:21;;;;;;;1.52;0.80;;;;;;;;;;5083511;28;20227;-50
2023/04/19 13:28:48;;;;;;;1.33;0.80;;;;;;;;;;5084190;28;20219;-49
2023/04/19 13:31:15;;;;;;;0.90;0.80;;;;;;;;;;5080101;28;20206;-49
2023/04/19 13:33:43;;;;;;;0.80;0.63;;;;;;;;;;5083375;28;20196;-49
2023/04/19 13:36:10;;;;;;;2.15;1.00;;;;;;;;;;5085214;28;20195;-51
2023/04/19 13:38:37;;;;;;;0.90;0.70;;;;;;;;;;5082249;28;20205;-52
2023/04/19 13:41:04;;;;;;;1.38;0.80;;;;;;;;;;5081783;28;20273;-52
2023/04/19 13:43:31;;;;;;;0.73;0.50;;;;;;;;;;5066972;28;20252;-49
2023/04/19 13:45:58;;;;;;;0.80;0.60;;;;;;;;;;5074066;28;20537;-49
2023/04/19 13:48:27;;;;;;;0.90;0.70;;;;;;;;;;5085866;28;20207;-50
2023/04/19 13:50:55;;;;;;;2.08;0.90;;;;;;;;;;5081591;28;20203;-50
2023/04/19 13:53:23;;;;;;;0.75;0.60;;;;;;;;;;5082922;28;20659;-49
2023/04/19 13:55:51;;;;;;;0.80;0.80;;;;;;;;;;5082952;28;20218;-49
2023/04/19 13:58:18;;;;;;;2.78;0.90;;;;;;;;;;5085246;28;20265;-49
2023/04/19 14:00:46;;;;;;;1.30;0.90;;;;;;;;;;5064331;28;20214;-52
2023/04/19 14:03:14;;;;;;;1.05;0.88;;;;;;;;;;5085495;28;20218;-50
2023/04/19 14:05:41;;;;;;;1.42;0.70;;;;;;;;;;5088418;28;20219;-50
2023/04/19 14:08:09;;;;;;;1.92;1.08;;;;;;;;;;5072878;28;20204;-48
2023/04/19 14:10:36;;;;;;;1.20;1.02;;;;;;;;;;5077161;28;20199;-51
2023/04/19 14:13:04;;;;;;;2.63;0.90;;;;;;;;;;5068660;28;20597;-50
2023/04/19 14:15:31;;;;;;;1.00;0.80;;;;;;;;;;5077147;28;20209;-51
2023/04/19 14:17:59;;;;;;;1.52;0.85;;;;;;;;;;5085873;28;20213;-49
2023/04/19 14:20:26;;;;;;;2.03;1.10;;;;;;;;;;5066330;28;20266;-49
2023/04/19 14:22:55;;;;;;;1.60;0.77;;;;;;;;;;5084027;28;20226;-50
2023/04/19 14:25:21;;;;;;;1.13;0.90;;;;;;;;;;5060420;28;20253;-49
2023/04/19 14:27:49;;;;;;;1.20;0.80;;;;;;;;;;5072680;28;20219;-55
2023/04/19 14:30:16;;;;;;;1.23;0.73;;;;;;;;;;5062410;28;20262;-48
2023/04/19 14:32:43;;;;;;;1.15;0.80;;;;;;;;;;5086404;28;20219;-49
2023/04/19 14:35:10;;;;;;;2.08;1.02;;;;;;;;;;5067211;28;20275;-48
2023/04/19 14:37:38;;;;;;;1.63;0.90;;;;;;;;;;5079371;28;20238;-49
2023/04/19 14:40:06;;;;;;;1.02;0.90;;;;;;;;;;5081299;28;20261;-50
2023/04/19 14:42:33;;;;;;;2.13;1.00;;;;;;;;;;5074035;28;20219;-49
2023/04/19 14:45:00;;;;;;;1.10;0.80;;;;;;;;;;5069934;28;20223;-51
2023/04/19 14:47:27;;;;;;;1.38;0.77;;;;;;;;;;5073807;28;20238;-49
2023/04/19 14:49:54;;;;;;;1.52;1.10;;;;;;;;;;5070525;28;20259;-49
2023/04/19 14:52:23;;;;;;;2.25;1.00;;;;;;;;;;5067957;28;20218;-50
2023/04/19 14:54:50;;;;;;;1.58;0.98;;;;;;;;;;5073768;28;20231;-48
2023/04/19 14:57:17;;;;;;;2.28;1.05;;;;;;;;;;5078892;28;20219;-50